Weather at Campo di Volo Aerlight Faenza

Public forecast

Using degrees Celsius for public forecast. Weather courtesy of forecast.io.

Closest aviation weather report (METAR) to Campo di Volo Aerlight Faenza

Closest report is Forlì Airport, 10.7 nm (19.8 km) SE. Retrieved 2021/07/24 18:50 UTC (32 minutes ago):

LIPK 241850Z 00000KT CAVOK 29/18 Q1010

Closest aviation forecast (TAF) to Campo di Volo Aerlight Faenza

Closest forecast is Forlì Airport, 10.7 nm (19.8 km) SE. Retrieved 2021/07/24 18:00 UTC (1 hour ago):

TAF LIPK 241700Z 2418/2518 VRB05KT 9999 FEW040 BECMG 2509/2511 22012KT